Troy, NY

2:45 PM EDT on July 30, 2016 (GMT -0400)
Bald Mt Site | | Change Station

Elev 963 ft 42.79 °N, 73.63 °W | Updated 22 seconds ago

Mostly Cloudy
Mostly Cloudy
75.0 °F
Feels Like 77 °F
N
0.0
Wind Variable Wind from WSW
Gusts 0.0 mph

Today
High -- | Low -- °F
--% Chance of Precip.
Yesterday
High -- | Low -- °F
Precip. -- in
Pressure 30.05 in
Visibility 10.0 miles
Clouds Few 4500 ft
Scattered Clouds 8500 ft
Mostly Cloudy 11000 ft
Mostly Cloudy 14000 ft
Mostly Cloudy 26000 ft
Heat Index 77 °F
Dew Point 63 °F
Humidity 66%
Rainfall 0.00 in
Snow Depth Not available.
5:44 AM 8:16 PM
Waning Crescent, 11% visible
METAR KALB 301751Z 33005KT 10SM FEW045 SCT085 BKN110 BKN140 BKN260 25/16 A3005 RMK AO2 RAB03E33 SLP175 P0000 60000 T02500156 10256 20194 58002
Pressure 30.05 in
Visibility 10.0 miles
Clouds Few 4500 ft
Scattered Clouds 8500 ft
Mostly Cloudy 11000 ft
Mostly Cloudy 14000 ft
Mostly Cloudy 26000 ft
Heat Index 77 °F
Dew Point 63 °F
Humidity 66%
Rainfall 0.00 in
Snow Depth Not available.
5:44 AM 8:16 PM
Waning Crescent, 11% visible
METAR KALB 301751Z 33005KT 10SM FEW045 SCT085 BKN110 BKN140 BKN260 25/16 A3005 RMK AO2 RAB03E33 SLP175 P0000 60000 T02500156 10256 20194 58002

10-Day Weather Forecast

Almanac

Astronomy

Jul. 30, 2016 Rise Set
Actual Time
Civil Twilight
Nautical Twilight
Astronomical Twilight
Moon
Length of Visible Light
Length of Day
Tomorrow will be .
, % of the Moon is Illuminated

Today's Extremes

State Highs State Lows

Community

WunderPhotos

Upload Photos

1,928,612 photos uploaded!

WunderBlog® & News

Nearby

Air Quality

  Air Quality AQ Index Pollutant
Not available.

Snow Depth

Station Depth Elevation

Earthquake Activity

City Distance Mag. Time & Date
Minimum magnitude displayed is 2.5.

Coastal Water Temperatures

Place Temperature

Stations

Nearby Weather Stations

Station Location Temp. Windchill Dew Point Humidity Wind Precip. Elev Updated Type
                   

Watches & Warnings

There are currently no watches in effect.